sensor_id;sensor_type;location;lat;lon;timestamp;P1;durP1;ratioP1;P2;durP2;ratioP2
14876;SDS011;69691;48.172;17.070;2023-12-04T00:01:24;50.72;;;26.17;;
14876;SDS011;69691;48.172;17.070;2023-12-04T00:03:51;51.25;;;26.42;;
14876;SDS011;69691;48.172;17.070;2023-12-04T00:06:18;55.53;;;27.13;;
14876;SDS011;69691;48.172;17.070;2023-12-04T00:08:44;53.40;;;24.92;;
14876;SDS011;69691;48.172;17.070;2023-12-04T00:11:10;58.55;;;26.05;;
14876;SDS011;69691;48.172;17.070;2023-12-04T00:13:36;55.20;;;25.05;;
14876;SDS011;69691;48.172;17.070;2023-12-04T00:16:02;50.80;;;25.40;;
14876;SDS011;69691;48.172;17.070;2023-12-04T00:18:28;63.88;;;27.48;;
14876;SDS011;69691;48.172;17.070;2023-12-04T00:20:55;59.95;;;27.27;;
14876;SDS011;69691;48.172;17.070;2023-12-04T00:23:20;61.97;;;28.33;;
14876;SDS011;69691;48.172;17.070;2023-12-04T00:25:46;60.53;;;28.10;;
14876;SDS011;69691;48.172;17.070;2023-12-04T00:28:12;62.90;;;27.45;;
14876;SDS011;69691;48.172;17.070;2023-12-04T00:30:38;64.03;;;27.67;;
14876;SDS011;69691;48.172;17.070;2023-12-04T00:33:04;58.92;;;26.40;;
14876;SDS011;69691;48.172;17.070;2023-12-04T00:35:30;62.25;;;27.85;;
14876;SDS011;69691;48.172;17.070;2023-12-04T00:37:56;57.58;;;25.20;;
14876;SDS011;69691;48.172;17.070;2023-12-04T00:40:21;54.75;;;24.45;;
14876;SDS011;69691;48.172;17.070;2023-12-04T00:42:48;53.08;;;25.17;;
14876;SDS011;69691;48.172;17.070;2023-12-04T00:45:14;57.85;;;25.40;;
14876;SDS011;69691;48.172;17.070;2023-12-04T00:47:40;59.03;;;26.83;;
14876;SDS011;69691;48.172;17.070;2023-12-04T00:50:06;63.03;;;25.90;;
14876;SDS011;69691;48.172;17.070;2023-12-04T00:52:32;59.40;;;26.38;;
14876;SDS011;69691;48.172;17.070;2023-12-04T00:54:58;59.17;;;26.38;;
14876;SDS011;69691;48.172;17.070;2023-12-04T00:57:24;57.08;;;26.45;;
14876;SDS011;69691;48.172;17.070;2023-12-04T00:59:49;51.88;;;25.67;;
14876;SDS011;69691;48.172;17.070;2023-12-04T01:02:16;55.00;;;25.73;;
14876;SDS011;69691;48.172;17.070;2023-12-04T01:04:41;54.90;;;24.48;;
14876;SDS011;69691;48.172;17.070;2023-12-04T01:07:07;51.97;;;25.15;;
14876;SDS011;69691;48.172;17.070;2023-12-04T01:09:36;52.20;;;26.08;;
14876;SDS011;69691;48.172;17.070;2023-12-04T01:12:02;55.40;;;25.50;;
14876;SDS011;69691;48.172;17.070;2023-12-04T01:14:29;48.58;;;22.88;;
14876;SDS011;69691;48.172;17.070;2023-12-04T01:16:55;53.53;;;25.00;;
14876;SDS011;69691;48.172;17.070;2023-12-04T01:19:21;58.42;;;25.92;;
14876;SDS011;69691;48.172;17.070;2023-12-04T01:21:47;59.40;;;25.83;;
14876;SDS011;69691;48.172;17.070;2023-12-04T01:24:14;59.97;;;28.25;;
14876;SDS011;69691;48.172;17.070;2023-12-04T01:26:40;55.75;;;25.20;;
14876;SDS011;69691;48.172;17.070;2023-12-04T01:29:06;58.45;;;26.10;;
14876;SDS011;69691;48.172;17.070;2023-12-04T01:31:32;54.45;;;25.58;;
14876;SDS011;69691;48.172;17.070;2023-12-04T01:33:58;52.53;;;25.05;;
14876;SDS011;69691;48.172;17.070;2023-12-04T01:36:24;62.03;;;26.33;;
14876;SDS011;69691;48.172;17.070;2023-12-04T01:38:50;59.00;;;25.70;;
14876;SDS011;69691;48.172;17.070;2023-12-04T01:41:16;49.83;;;24.67;;
14876;SDS011;69691;48.172;17.070;2023-12-04T01:43:42;60.38;;;26.27;;
14876;SDS011;69691;48.172;17.070;2023-12-04T01:46:07;53.20;;;23.80;;
14876;SDS011;69691;48.172;17.070;2023-12-04T01:48:34;54.55;;;25.83;;
14876;SDS011;69691;48.172;17.070;2023-12-04T01:51:03;52.67;;;24.85;;
14876;SDS011;69691;48.172;17.070;2023-12-04T01:53:33;50.17;;;25.33;;
14876;SDS011;69691;48.172;17.070;2023-12-04T01:56:01;58.88;;;24.30;;
14876;SDS011;69691;48.172;17.070;2023-12-04T01:58:27;47.00;;;23.75;;
14876;SDS011;69691;48.172;17.070;2023-12-04T02:00:53;49.50;;;24.35;;
14876;SDS011;69691;48.172;17.070;2023-12-04T02:03:19;46.17;;;22.63;;
14876;SDS011;69691;48.172;17.070;2023-12-04T02:05:45;49.83;;;24.42;;
14876;SDS011;69691;48.172;17.070;2023-12-04T02:08:11;44.05;;;22.80;;
14876;SDS011;69691;48.172;17.070;2023-12-04T02:10:37;47.30;;;23.40;;
14876;SDS011;69691;48.172;17.070;2023-12-04T02:13:04;49.45;;;24.70;;
14876;SDS011;69691;48.172;17.070;2023-12-04T02:15:32;51.10;;;23.52;;
14876;SDS011;69691;48.172;17.070;2023-12-04T02:17:58;55.80;;;25.48;;
14876;SDS011;69691;48.172;17.070;2023-12-04T02:20:33;50.10;;;23.08;;
14876;SDS011;69691;48.172;17.070;2023-12-04T02:23:02;56.75;;;24.48;;
14876;SDS011;69691;48.172;17.070;2023-12-04T02:25:29;51.67;;;23.40;;
14876;SDS011;69691;48.172;17.070;2023-12-04T02:27:56;45.03;;;22.27;;
14876;SDS011;69691;48.172;17.070;2023-12-04T02:30:26;44.38;;;23.27;;
14876;SDS011;69691;48.172;17.070;2023-12-04T02:32:55;48.53;;;23.63;;
14876;SDS011;69691;48.172;17.070;2023-12-04T02:35:24;46.75;;;22.63;;
14876;SDS011;69691;48.172;17.070;2023-12-04T02:37:54;52.78;;;24.30;;
14876;SDS011;69691;48.172;17.070;2023-12-04T02:40:23;43.22;;;22.23;;
14876;SDS011;69691;48.172;17.070;2023-12-04T02:42:50;47.85;;;22.17;;
14876;SDS011;69691;48.172;17.070;2023-12-04T02:45:16;42.22;;;21.40;;
14876;SDS011;69691;48.172;17.070;2023-12-04T02:47:42;43.78;;;21.40;;
14876;SDS011;69691;48.172;17.070;2023-12-04T02:50:08;46.72;;;21.40;;
14876;SDS011;69691;48.172;17.070;2023-12-04T02:52:34;44.13;;;21.80;;
14876;SDS011;69691;48.172;17.070;2023-12-04T02:55:00;44.25;;;20.38;;
14876;SDS011;69691;48.172;17.070;2023-12-04T02:57:26;43.65;;;21.58;;
14876;SDS011;69691;48.172;17.070;2023-12-04T02:59:52;46.78;;;22.63;;
14876;SDS011;69691;48.172;17.070;2023-12-04T03:02:18;39.55;;;21.02;;
14876;SDS011;69691;48.172;17.070;2023-12-04T03:04:44;45.88;;;21.38;;
14876;SDS011;69691;48.172;17.070;2023-12-04T03:07:10;43.33;;;20.52;;
14876;SDS011;69691;48.172;17.070;2023-12-04T03:09:36;39.63;;;19.25;;
14876;SDS011;69691;48.172;17.070;2023-12-04T03:12:02;46.90;;;21.08;;
14876;SDS011;69691;48.172;17.070;2023-12-04T03:14:29;41.05;;;20.85;;
14876;SDS011;69691;48.172;17.070;2023-12-04T03:16:54;38.38;;;19.95;;
14876;SDS011;69691;48.172;17.070;2023-12-04T03:19:20;40.33;;;20.23;;
14876;SDS011;69691;48.172;17.070;2023-12-04T03:21:46;43.42;;;22.02;;
14876;SDS011;69691;48.172;17.070;2023-12-04T03:24:12;41.13;;;19.52;;
14876;SDS011;69691;48.172;17.070;2023-12-04T03:26:38;35.38;;;19.63;;
14876;SDS011;69691;48.172;17.070;2023-12-04T03:29:03;37.45;;;20.08;;
14876;SDS011;69691;48.172;17.070;2023-12-04T03:31:29;38.30;;;19.80;;
14876;SDS011;69691;48.172;17.070;2023-12-04T03:33:56;38.20;;;19.63;;
14876;SDS011;69691;48.172;17.070;2023-12-04T03:36:22;42.90;;;19.45;;
14876;SDS011;69691;48.172;17.070;2023-12-04T03:38:48;41.58;;;20.15;;
14876;SDS011;69691;48.172;17.070;2023-12-04T03:41:14;41.42;;;19.20;;
14876;SDS011;69691;48.172;17.070;2023-12-04T03:43:41;42.85;;;20.45;;
14876;SDS011;69691;48.172;17.070;2023-12-04T03:46:07;39.42;;;19.25;;
14876;SDS011;69691;48.172;17.070;2023-12-04T03:48:33;42.92;;;18.73;;
14876;SDS011;69691;48.172;17.070;2023-12-04T03:50:59;39.10;;;19.70;;
14876;SDS011;69691;48.172;17.070;2023-12-04T03:53:25;37.30;;;20.35;;
14876;SDS011;69691;48.172;17.070;2023-12-04T03:55:52;37.78;;;18.77;;
14876;SDS011;69691;48.172;17.070;2023-12-04T03:58:17;39.13;;;19.77;;
14876;SDS011;69691;48.172;17.070;2023-12-04T04:00:43;40.30;;;19.90;;
14876;SDS011;69691;48.172;17.070;2023-12-04T04:03:09;40.08;;;19.67;;
14876;SDS011;69691;48.172;17.070;2023-12-04T04:05:36;36.65;;;19.67;;
14876;SDS011;69691;48.172;17.070;2023-12-04T04:08:02;35.92;;;19.67;;
14876;SDS011;69691;48.172;17.070;2023-12-04T04:10:28;37.70;;;18.60;;
14876;SDS011;69691;48.172;17.070;2023-12-04T04:12:54;37.95;;;20.02;;
14876;SDS011;69691;48.172;17.070;2023-12-04T04:15:20;37.03;;;18.85;;
14876;SDS011;69691;48.172;17.070;2023-12-04T04:17:46;37.17;;;19.02;;
14876;SDS011;69691;48.172;17.070;2023-12-04T04:20:12;35.53;;;18.33;;
14876;SDS011;69691;48.172;17.070;2023-12-04T04:22:38;36.75;;;19.38;;
14876;SDS011;69691;48.172;17.070;2023-12-04T04:25:08;37.78;;;18.70;;
14876;SDS011;69691;48.172;17.070;2023-12-04T04:27:35;38.10;;;18.58;;
14876;SDS011;69691;48.172;17.070;2023-12-04T04:30:02;37.05;;;19.20;;
14876;SDS011;69691;48.172;17.070;2023-12-04T04:32:28;38.97;;;19.73;;
14876;SDS011;69691;48.172;17.070;2023-12-04T04:34:54;38.95;;;20.27;;
14876;SDS011;69691;48.172;17.070;2023-12-04T04:37:20;44.95;;;21.55;;
14876;SDS011;69691;48.172;17.070;2023-12-04T04:39:46;36.85;;;19.92;;
14876;SDS011;69691;48.172;17.070;2023-12-04T04:42:11;38.65;;;19.67;;
14876;SDS011;69691;48.172;17.070;2023-12-04T04:44:37;38.83;;;20.25;;
14876;SDS011;69691;48.172;17.070;2023-12-04T04:47:03;35.28;;;18.15;;
14876;SDS011;69691;48.172;17.070;2023-12-04T04:49:29;35.15;;;18.33;;
14876;SDS011;69691;48.172;17.070;2023-12-04T04:51:55;34.63;;;17.73;;
14876;SDS011;69691;48.172;17.070;2023-12-04T04:54:21;33.47;;;17.65;;
14876;SDS011;69691;48.172;17.070;2023-12-04T04:56:46;36.78;;;18.80;;
14876;SDS011;69691;48.172;17.070;2023-12-04T04:59:12;38.85;;;19.75;;
14876;SDS011;69691;48.172;17.070;2023-12-04T05:01:38;38.30;;;20.05;;
14876;SDS011;69691;48.172;17.070;2023-12-04T05:04:04;45.67;;;21.48;;
14876;SDS011;69691;48.172;17.070;2023-12-04T05:06:30;44.47;;;19.65;;
14876;SDS011;69691;48.172;17.070;2023-12-04T05:08:56;38.30;;;19.63;;
14876;SDS011;69691;48.172;17.070;2023-12-04T05:11:22;41.85;;;19.33;;
14876;SDS011;69691;48.172;17.070;2023-12-04T05:13:49;36.42;;;19.73;;
14876;SDS011;69691;48.172;17.070;2023-12-04T05:16:14;31.90;;;18.70;;
14876;SDS011;69691;48.172;17.070;2023-12-04T05:18:40;36.65;;;19.70;;
14876;SDS011;69691;48.172;17.070;2023-12-04T05:21:09;36.88;;;19.13;;
14876;SDS011;69691;48.172;17.070;2023-12-04T05:23:36;37.90;;;20.40;;
14876;SDS011;69691;48.172;17.070;2023-12-04T05:26:05;44.15;;;21.45;;
14876;SDS011;69691;48.172;17.070;2023-12-04T05:28:32;39.72;;;21.17;;
14876;SDS011;69691;48.172;17.070;2023-12-04T05:30:59;42.45;;;23.08;;
14876;SDS011;69691;48.172;17.070;2023-12-04T05:33:25;37.97;;;20.60;;
14876;SDS011;69691;48.172;17.070;2023-12-04T05:35:51;41.13;;;20.67;;
14876;SDS011;69691;48.172;17.070;2023-12-04T05:38:18;39.92;;;20.52;;
14876;SDS011;69691;48.172;17.070;2023-12-04T05:40:44;38.40;;;20.10;;
14876;SDS011;69691;48.172;17.070;2023-12-04T05:43:10;42.70;;;22.58;;
14876;SDS011;69691;48.172;17.070;2023-12-04T05:45:36;45.97;;;23.45;;
14876;SDS011;69691;48.172;17.070;2023-12-04T05:48:02;43.00;;;22.00;;
14876;SDS011;69691;48.172;17.070;2023-12-04T05:50:28;43.72;;;23.02;;
14876;SDS011;69691;48.172;17.070;2023-12-04T05:52:54;41.20;;;22.17;;
14876;SDS011;69691;48.172;17.070;2023-12-04T05:55:20;45.22;;;23.48;;
14876;SDS011;69691;48.172;17.070;2023-12-04T05:57:45;49.10;;;25.58;;
14876;SDS011;69691;48.172;17.070;2023-12-04T06:00:11;50.30;;;23.88;;
14876;SDS011;69691;48.172;17.070;2023-12-04T06:02:39;50.13;;;24.40;;
14876;SDS011;69691;48.172;17.070;2023-12-04T06:05:06;45.03;;;23.77;;
14876;SDS011;69691;48.172;17.070;2023-12-04T06:07:33;49.33;;;24.67;;
14876;SDS011;69691;48.172;17.070;2023-12-04T06:09:59;52.78;;;25.10;;
14876;SDS011;69691;48.172;17.070;2023-12-04T06:12:25;49.15;;;25.83;;
14876;SDS011;69691;48.172;17.070;2023-12-04T06:14:51;53.05;;;25.25;;
14876;SDS011;69691;48.172;17.070;2023-12-04T06:17:17;49.80;;;26.20;;
14876;SDS011;69691;48.172;17.070;2023-12-04T06:19:43;55.65;;;26.45;;
14876;SDS011;69691;48.172;17.070;2023-12-04T06:22:09;56.40;;;25.58;;
14876;SDS011;69691;48.172;17.070;2023-12-04T06:24:35;55.85;;;25.45;;
14876;SDS011;69691;48.172;17.070;2023-12-04T06:27:01;62.97;;;28.40;;
14876;SDS011;69691;48.172;17.070;2023-12-04T06:29:29;53.47;;;28.33;;
14876;SDS011;69691;48.172;17.070;2023-12-04T06:31:55;69.10;;;28.02;;
14876;SDS011;69691;48.172;17.070;2023-12-04T06:34:22;65.43;;;28.20;;
14876;SDS011;69691;48.172;17.070;2023-12-04T06:36:48;73.15;;;29.50;;
14876;SDS011;69691;48.172;17.070;2023-12-04T06:39:14;64.07;;;29.02;;
14876;SDS011;69691;48.172;17.070;2023-12-04T06:41:42;87.45;;;32.10;;
14876;SDS011;69691;48.172;17.070;2023-12-04T06:44:11;65.95;;;31.33;;
14876;SDS011;69691;48.172;17.070;2023-12-04T06:46:38;70.10;;;30.70;;
14876;SDS011;69691;48.172;17.070;2023-12-04T06:49:04;69.40;;;31.42;;
14876;SDS011;69691;48.172;17.070;2023-12-04T06:51:32;65.45;;;31.95;;
14876;SDS011;69691;48.172;17.070;2023-12-04T06:53:58;64.07;;;32.50;;
14876;SDS011;69691;48.172;17.070;2023-12-04T06:56:23;80.20;;;33.88;;
14876;SDS011;69691;48.172;17.070;2023-12-04T06:58:49;64.65;;;31.73;;
14876;SDS011;69691;48.172;17.070;2023-12-04T07:01:15;70.85;;;31.92;;
14876;SDS011;69691;48.172;17.070;2023-12-04T07:03:41;68.22;;;32.10;;
14876;SDS011;69691;48.172;17.070;2023-12-04T07:06:07;66.25;;;32.13;;
14876;SDS011;69691;48.172;17.070;2023-12-04T07:08:33;57.80;;;29.67;;
14876;SDS011;69691;48.172;17.070;2023-12-04T07:10:59;61.10;;;29.50;;
14876;SDS011;69691;48.172;17.070;2023-12-04T07:13:25;54.05;;;28.48;;
14876;SDS011;69691;48.172;17.070;2023-12-04T07:15:51;51.83;;;28.15;;
14876;SDS011;69691;48.172;17.070;2023-12-04T07:18:16;51.10;;;27.83;;
14876;SDS011;69691;48.172;17.070;2023-12-04T07:20:42;53.60;;;28.52;;
14876;SDS011;69691;48.172;17.070;2023-12-04T07:23:08;50.58;;;27.30;;
14876;SDS011;69691;48.172;17.070;2023-12-04T07:25:34;52.78;;;28.20;;
14876;SDS011;69691;48.172;17.070;2023-12-04T07:28:00;60.03;;;30.67;;
14876;SDS011;69691;48.172;17.070;2023-12-04T07:30:25;52.50;;;26.45;;
14876;SDS011;69691;48.172;17.070;2023-12-04T07:32:52;50.03;;;26.55;;
14876;SDS011;69691;48.172;17.070;2023-12-04T07:35:18;52.13;;;28.63;;
14876;SDS011;69691;48.172;17.070;2023-12-04T07:37:44;56.80;;;29.50;;
14876;SDS011;69691;48.172;17.070;2023-12-04T07:40:10;54.17;;;29.70;;
14876;SDS011;69691;48.172;17.070;2023-12-04T07:42:37;50.42;;;27.85;;
14876;SDS011;69691;48.172;17.070;2023-12-04T07:45:04;53.28;;;28.17;;
14876;SDS011;69691;48.172;17.070;2023-12-04T07:47:30;52.70;;;29.30;;
14876;SDS011;69691;48.172;17.070;2023-12-04T07:49:56;55.97;;;30.80;;
14876;SDS011;69691;48.172;17.070;2023-12-04T07:52:22;55.63;;;29.88;;
14876;SDS011;69691;48.172;17.070;2023-12-04T07:54:47;44.22;;;25.42;;
14876;SDS011;69691;48.172;17.070;2023-12-04T07:57:13;52.00;;;28.95;;
14876;SDS011;69691;48.172;17.070;2023-12-04T07:59:39;53.92;;;29.00;;
14876;SDS011;69691;48.172;17.070;2023-12-04T08:02:05;51.70;;;28.08;;
14876;SDS011;69691;48.172;17.070;2023-12-04T08:04:31;39.00;;;26.63;;
14876;SDS011;69691;48.172;17.070;2023-12-04T08:06:57;52.15;;;32.08;;
14876;SDS011;69691;48.172;17.070;2023-12-04T08:09:22;52.05;;;31.02;;
14876;SDS011;69691;48.172;17.070;2023-12-04T08:11:48;53.90;;;33.10;;
14876;SDS011;69691;48.172;17.070;2023-12-04T08:14:14;52.53;;;34.35;;
14876;SDS011;69691;48.172;17.070;2023-12-04T08:16:41;53.50;;;33.22;;
14876;SDS011;69691;48.172;17.070;2023-12-04T08:19:07;50.35;;;35.50;;
14876;SDS011;69691;48.172;17.070;2023-12-04T08:21:32;49.70;;;34.53;;
14876;SDS011;69691;48.172;17.070;2023-12-04T08:23:58;48.50;;;35.13;;
14876;SDS011;69691;48.172;17.070;2023-12-04T08:26:24;50.20;;;36.00;;
14876;SDS011;69691;48.172;17.070;2023-12-04T08:28:51;51.22;;;34.28;;
14876;SDS011;69691;48.172;17.070;2023-12-04T08:31:17;48.33;;;29.58;;
14876;SDS011;69691;48.172;17.070;2023-12-04T08:33:44;52.47;;;30.67;;
14876;SDS011;69691;48.172;17.070;2023-12-04T08:36:14;47.00;;;28.08;;
14876;SDS011;69691;48.172;17.070;2023-12-04T08:38:41;47.83;;;27.33;;
14876;SDS011;69691;48.172;17.070;2023-12-04T08:41:07;48.60;;;29.98;;
14876;SDS011;69691;48.172;17.070;2023-12-04T08:43:33;44.90;;;25.40;;
14876;SDS011;69691;48.172;17.070;2023-12-04T08:45:59;46.50;;;30.35;;
14876;SDS011;69691;48.172;17.070;2023-12-04T08:48:25;41.40;;;26.17;;
14876;SDS011;69691;48.172;17.070;2023-12-04T08:50:51;46.10;;;26.88;;
14876;SDS011;69691;48.172;17.070;2023-12-04T08:53:17;46.10;;;29.25;;
14876;SDS011;69691;48.172;17.070;2023-12-04T08:55:43;41.92;;;25.20;;
14876;SDS011;69691;48.172;17.070;2023-12-04T08:58:09;41.53;;;25.95;;
14876;SDS011;69691;48.172;17.070;2023-12-04T09:00:36;43.67;;;26.88;;
14876;SDS011;69691;48.172;17.070;2023-12-04T09:03:03;40.95;;;25.75;;
14876;SDS011;69691;48.172;17.070;2023-12-04T09:05:28;41.72;;;26.60;;
14876;SDS011;69691;48.172;17.070;2023-12-04T09:07:54;44.53;;;27.45;;
14876;SDS011;69691;48.172;17.070;2023-12-04T09:10:20;49.13;;;29.17;;
14876;SDS011;69691;48.172;17.070;2023-12-04T09:12:46;48.35;;;27.35;;
14876;SDS011;69691;48.172;17.070;2023-12-04T09:15:11;47.72;;;27.17;;
14876;SDS011;69691;48.172;17.070;2023-12-04T09:17:37;56.22;;;28.40;;
14876;SDS011;69691;48.172;17.070;2023-12-04T09:20:04;47.58;;;28.40;;
14876;SDS011;69691;48.172;17.070;2023-12-04T09:22:31;46.25;;;28.02;;
14876;SDS011;69691;48.172;17.070;2023-12-04T09:24:56;52.80;;;26.45;;
14876;SDS011;69691;48.172;17.070;2023-12-04T09:27:22;43.58;;;26.60;;
14876;SDS011;69691;48.172;17.070;2023-12-04T09:29:48;40.15;;;22.05;;
14876;SDS011;69691;48.172;17.070;2023-12-04T09:32:14;46.90;;;27.30;;
14876;SDS011;69691;48.172;17.070;2023-12-04T09:34:40;45.72;;;27.38;;
14876;SDS011;69691;48.172;17.070;2023-12-04T09:37:06;46.75;;;27.65;;
14876;SDS011;69691;48.172;17.070;2023-12-04T09:39:33;45.78;;;28.20;;
14876;SDS011;69691;48.172;17.070;2023-12-04T09:41:58;48.13;;;27.95;;
14876;SDS011;69691;48.172;17.070;2023-12-04T09:44:26;49.13;;;27.08;;
14876;SDS011;69691;48.172;17.070;2023-12-04T09:46:54;44.65;;;25.80;;
14876;SDS011;69691;48.172;17.070;2023-12-04T09:49:21;47.50;;;25.50;;
14876;SDS011;69691;48.172;17.070;2023-12-04T09:51:48;39.45;;;23.77;;
14876;SDS011;69691;48.172;17.070;2023-12-04T09:54:14;39.13;;;23.83;;
14876;SDS011;69691;48.172;17.070;2023-12-04T09:56:44;41.95;;;24.80;;
14876;SDS011;69691;48.172;17.070;2023-12-04T09:59:10;40.80;;;24.65;;
14876;SDS011;69691;48.172;17.070;2023-12-04T10:01:40;39.30;;;23.65;;
14876;SDS011;69691;48.172;17.070;2023-12-04T10:04:06;41.42;;;26.27;;
14876;SDS011;69691;48.172;17.070;2023-12-04T10:06:33;41.45;;;24.45;;
14876;SDS011;69691;48.172;17.070;2023-12-04T10:09:00;41.28;;;25.52;;
14876;SDS011;69691;48.172;17.070;2023-12-04T10:11:25;36.15;;;20.27;;
14876;SDS011;69691;48.172;17.070;2023-12-04T10:13:52;40.80;;;23.88;;
14876;SDS011;69691;48.172;17.070;2023-12-04T10:16:35;44.83;;;25.52;;
14876;SDS011;69691;48.172;17.070;2023-12-04T10:21:56;34.80;;;21.80;;
14876;SDS011;69691;48.172;17.070;2023-12-04T10:26:59;37.33;;;22.80;;
14876;SDS011;69691;48.172;17.070;2023-12-04T10:29:28;38.75;;;23.13;;
14876;SDS011;69691;48.172;17.070;2023-12-04T10:31:57;33.03;;;20.23;;
14876;SDS011;69691;48.172;17.070;2023-12-04T10:34:25;35.50;;;20.67;;
14876;SDS011;69691;48.172;17.070;2023-12-04T10:36:51;38.65;;;23.35;;
14876;SDS011;69691;48.172;17.070;2023-12-04T10:39:18;28.77;;;18.90;;
14876;SDS011;69691;48.172;17.070;2023-12-04T10:41:44;30.00;;;19.13;;
14876;SDS011;69691;48.172;17.070;2023-12-04T10:44:15;27.55;;;19.33;;
14876;SDS011;69691;48.172;17.070;2023-12-04T10:46:43;34.63;;;21.17;;
14876;SDS011;69691;48.172;17.070;2023-12-04T10:49:13;29.50;;;19.83;;
14876;SDS011;69691;48.172;17.070;2023-12-04T10:51:39;32.05;;;20.90;;
14876;SDS011;69691;48.172;17.070;2023-12-04T10:54:05;31.33;;;20.92;;
14876;SDS011;69691;48.172;17.070;2023-12-04T10:56:41;37.60;;;23.02;;
14876;SDS011;69691;48.172;17.070;2023-12-04T10:59:15;37.70;;;23.08;;
14876;SDS011;69691;48.172;17.070;2023-12-04T11:01:47;37.33;;;21.73;;
14876;SDS011;69691;48.172;17.070;2023-12-04T11:04:17;34.25;;;20.15;;
14876;SDS011;69691;48.172;17.070;2023-12-04T11:06:49;35.45;;;22.00;;
14876;SDS011;69691;48.172;17.070;2023-12-04T11:09:19;35.28;;;23.05;;
14876;SDS011;69691;48.172;17.070;2023-12-04T11:11:48;33.22;;;22.40;;
14876;SDS011;69691;48.172;17.070;2023-12-04T11:14:19;37.83;;;20.15;;
14876;SDS011;69691;48.172;17.070;2023-12-04T11:16:48;33.90;;;22.25;;
14876;SDS011;69691;48.172;17.070;2023-12-04T11:22:19;34.80;;;22.08;;
14876;SDS011;69691;48.172;17.070;2023-12-04T11:24:47;34.50;;;21.83;;
14876;SDS011;69691;48.172;17.070;2023-12-04T11:27:16;30.02;;;20.58;;
14876;SDS011;69691;48.172;17.070;2023-12-04T11:29:44;31.23;;;20.30;;
14876;SDS011;69691;48.172;17.070;2023-12-04T11:32:13;34.30;;;18.08;;
14876;SDS011;69691;48.172;17.070;2023-12-04T11:34:49;30.10;;;19.70;;
14876;SDS011;69691;48.172;17.070;2023-12-04T11:37:17;28.17;;;19.15;;
14876;SDS011;69691;48.172;17.070;2023-12-04T11:39:49;30.88;;;19.73;;
14876;SDS011;69691;48.172;17.070;2023-12-04T11:42:25;27.77;;;18.98;;
14876;SDS011;69691;48.172;17.070;2023-12-04T11:44:56;32.40;;;18.65;;
14876;SDS011;69691;48.172;17.070;2023-12-04T11:47:23;24.83;;;17.88;;
14876;SDS011;69691;48.172;17.070;2023-12-04T11:49:50;26.60;;;18.17;;
14876;SDS011;69691;48.172;17.070;2023-12-04T11:52:15;29.08;;;17.90;;
14876;SDS011;69691;48.172;17.070;2023-12-04T11:55:14;24.08;;;16.75;;
14876;SDS011;69691;48.172;17.070;2023-12-04T11:57:35;28.83;;;17.38;;
14876;SDS011;69691;48.172;17.070;2023-12-04T12:05:21;25.45;;;16.67;;
14876;SDS011;69691;48.172;17.070;2023-12-04T12:07:48;27.85;;;16.10;;
14876;SDS011;69691;48.172;17.070;2023-12-04T12:10:18;29.83;;;16.83;;
14876;SDS011;69691;48.172;17.070;2023-12-04T12:12:44;23.35;;;15.10;;
14876;SDS011;69691;48.172;17.070;2023-12-04T12:15:10;22.65;;;15.18;;
14876;SDS011;69691;48.172;17.070;2023-12-04T12:17:37;21.52;;;15.20;;
14876;SDS011;69691;48.172;17.070;2023-12-04T12:20:07;20.33;;;14.32;;
14876;SDS011;69691;48.172;17.070;2023-12-04T12:22:35;22.40;;;14.95;;
14876;SDS011;69691;48.172;17.070;2023-12-04T12:25:05;19.42;;;14.20;;
14876;SDS011;69691;48.172;17.070;2023-12-04T12:27:32;22.27;;;14.18;;
14876;SDS011;69691;48.172;17.070;2023-12-04T12:29:59;27.30;;;14.05;;
14876;SDS011;69691;48.172;17.070;2023-12-04T12:32:26;21.80;;;13.10;;
14876;SDS011;69691;48.172;17.070;2023-12-04T12:34:52;21.70;;;13.27;;
14876;SDS011;69691;48.172;17.070;2023-12-04T12:37:20;17.92;;;12.90;;
14876;SDS011;69691;48.172;17.070;2023-12-04T12:39:47;19.77;;;13.10;;
14876;SDS011;69691;48.172;17.070;2023-12-04T12:42:25;17.98;;;12.90;;
14876;SDS011;69691;48.172;17.070;2023-12-04T12:44:55;17.08;;;12.18;;
14876;SDS011;69691;48.172;17.070;2023-12-04T12:47:25;17.15;;;12.18;;
14876;SDS011;69691;48.172;17.070;2023-12-04T12:49:51;18.30;;;12.00;;
14876;SDS011;69691;48.172;17.070;2023-12-04T12:52:17;17.02;;;11.68;;
14876;SDS011;69691;48.172;17.070;2023-12-04T12:54:44;16.08;;;11.82;;
14876;SDS011;69691;48.172;17.070;2023-12-04T12:57:11;17.20;;;11.27;;
14876;SDS011;69691;48.172;17.070;2023-12-04T12:59:38;16.98;;;11.63;;
14876;SDS011;69691;48.172;17.070;2023-12-04T13:02:04;17.05;;;12.00;;
14876;SDS011;69691;48.172;17.070;2023-12-04T13:04:37;21.02;;;11.63;;
14876;SDS011;69691;48.172;17.070;2023-12-04T13:07:05;16.58;;;11.35;;
14876;SDS011;69691;48.172;17.070;2023-12-04T13:09:35;16.65;;;11.32;;
14876;SDS011;69691;48.172;17.070;2023-12-04T13:12:01;27.63;;;12.15;;
14876;SDS011;69691;48.172;17.070;2023-12-04T13:14:31;15.35;;;10.50;;
14876;SDS011;69691;48.172;17.070;2023-12-04T13:16:59;16.88;;;10.80;;
14876;SDS011;69691;48.172;17.070;2023-12-04T13:19:26;13.45;;;10.65;;
14876;SDS011;69691;48.172;17.070;2023-12-04T13:21:52;15.48;;;10.32;;
14876;SDS011;69691;48.172;17.070;2023-12-04T13:24:18;12.88;;;9.18;;
14876;SDS011;69691;48.172;17.070;2023-12-04T13:31:30;16.88;;;10.13;;
14876;SDS011;69691;48.172;17.070;2023-12-04T13:33:57;16.23;;;11.13;;
14876;SDS011;69691;48.172;17.070;2023-12-04T13:36:23;16.17;;;10.90;;
14876;SDS011;69691;48.172;17.070;2023-12-04T13:38:49;15.05;;;10.85;;
14876;SDS011;69691;48.172;17.070;2023-12-04T13:41:15;15.20;;;10.45;;
14876;SDS011;69691;48.172;17.070;2023-12-04T13:43:59;17.48;;;11.20;;
14876;SDS011;69691;48.172;17.070;2023-12-04T13:46:25;16.08;;;10.35;;
14876;SDS011;69691;48.172;17.070;2023-12-04T13:48:58;16.85;;;11.60;;
14876;SDS011;69691;48.172;17.070;2023-12-04T13:51:24;16.42;;;11.85;;
14876;SDS011;69691;48.172;17.070;2023-12-04T13:53:52;18.90;;;11.48;;
14876;SDS011;69691;48.172;17.070;2023-12-04T13:56:22;15.52;;;11.27;;
14876;SDS011;69691;48.172;17.070;2023-12-04T13:59:07;15.07;;;11.18;;
14876;SDS011;69691;48.172;17.070;2023-12-04T14:01:33;21.48;;;11.75;;
14876;SDS011;69691;48.172;17.070;2023-12-04T14:03:59;14.98;;;11.27;;
14876;SDS011;69691;48.172;17.070;2023-12-04T14:06:28;17.27;;;11.88;;
14876;SDS011;69691;48.172;17.070;2023-12-04T14:08:55;19.20;;;13.27;;
14876;SDS011;69691;48.172;17.070;2023-12-04T14:11:22;17.52;;;12.32;;
14876;SDS011;69691;48.172;17.070;2023-12-04T14:13:48;19.05;;;11.95;;
14876;SDS011;69691;48.172;17.070;2023-12-04T14:16:14;18.65;;;11.88;;
14876;SDS011;69691;48.172;17.070;2023-12-04T14:18:41;17.02;;;11.80;;
14876;SDS011;69691;48.172;17.070;2023-12-04T14:21:10;16.42;;;12.00;;
14876;SDS011;69691;48.172;17.070;2023-12-04T14:23:36;22.15;;;12.23;;
14876;SDS011;69691;48.172;17.070;2023-12-04T14:26:02;19.30;;;13.25;;